Time;durP1;ratioP1;P1;durP2;ratioP2;P2;SDS_P1;SDS_P2;PMS_P1;PMS_P2;Temp;Humidity;BMP_temperature;BMP_pressure;BME280_temperature;BME280_humidity;BME280_pressure;Samples;Min_cycle;Max_cycle;Signal;HPM_P1;HPM_P2
2023/12/06 00:01:28;;;;;;;24.30;16.17;;;3.80;99.90;;;;;;5034391;28;20163;-92
2023/12/06 00:03:54;;;;;;;19.77;14.00;;;3.70;99.90;;;;;;5034825;28;20270;-93
2023/12/06 00:06:20;;;;;;;21.83;15.02;;;3.70;99.90;;;;;;5035381;28;20030;-92
2023/12/06 00:08:56;;;;;;;23.83;14.65;;;3.70;99.90;;;;;;5039436;28;20050;-93
2023/12/06 00:11:22;;;;;;;20.13;14.82;;;3.70;99.90;;;;;;5039527;28;20028;-94
2023/12/06 00:13:58;;;;;;;23.65;14.20;;;3.70;99.90;;;;;;5024765;28;20033;-94
2023/12/06 00:16:33;;;;;;;20.67;13.95;;;3.70;99.90;;;;;;5019899;28;20018;-94
2023/12/06 00:19:07;;;;;;;20.08;13.70;;;3.80;99.90;;;;;;5029164;28;20017;-93
2023/12/06 00:21:54;;;;;;;20.33;14.75;;;3.80;99.90;;;;;;5038309;28;20029;-94
2023/12/06 00:24:21;;;;;;;20.02;13.65;;;3.80;99.90;;;;;;5038382;28;20021;-92
2023/12/06 00:26:51;;;;;;;25.60;14.98;;;3.80;99.90;;;;;;5034192;28;20045;-94
2023/12/06 00:29:24;;;;;;;19.25;14.27;;;4.50;99.90;;;;;;5038129;28;20037;-94
2023/12/06 00:31:50;;;;;;;20.75;13.98;;;3.80;99.90;;;;;;5037669;28;20508;-93
2023/12/06 00:34:16;;;;;;;22.85;13.18;;;3.80;99.90;;;;;;5034496;28;20049;-93
2023/12/06 00:36:41;;;;;;;20.55;13.82;;;3.90;99.90;;;;;;5054675;28;20130;-93
2023/12/06 00:39:17;;;;;;;20.95;13.77;;;3.90;99.90;;;;;;5059683;28;20060;-94
2023/12/06 00:41:43;;;;;;;20.27;13.75;;;4.00;99.90;;;;;;5057479;28;20025;-92
2023/12/06 00:44:11;;;;;;;20.73;12.95;;;3.90;99.90;;;;;;5055113;28;20030;-93
2023/12/06 00:46:36;;;;;;;17.85;12.13;;;3.90;99.90;;;;;;5046067;28;20060;-94
2023/12/06 00:49:03;;;;;;;17.92;12.70;;;4.00;99.90;;;;;;5040053;28;20026;-92
2023/12/06 00:51:29;;;;;;;24.27;12.38;;;4.00;99.90;;;;;;5040573;28;20030;-94
2023/12/06 00:53:57;;;;;;;17.50;11.50;;;4.00;99.90;;;;;;5022754;28;20501;-94
2023/12/06 00:56:22;;;;;;;18.75;12.50;;;4.00;99.90;;;;;;5048023;28;20025;-92
2023/12/06 00:58:48;;;;;;;15.02;11.73;;;4.00;99.90;;;;;;5054569;28;20044;-93
2023/12/06 01:01:23;;;;;;;16.25;12.10;;;4.00;99.90;;;;;;5044637;28;20035;-93
2023/12/06 01:03:49;;;;;;;16.58;11.90;;;4.00;99.90;;;;;;5039033;28;20076;-94
2023/12/06 01:06:15;;;;;;;17.83;12.05;;;4.00;99.90;;;;;;5038317;28;20025;-93
2023/12/06 01:08:40;;;;;;;18.08;13.27;;;4.10;99.90;;;;;;5047399;28;20018;-94
2023/12/06 01:11:07;;;;;;;17.50;11.52;;;4.10;99.90;;;;;;5045384;28;20449;-93
2023/12/06 01:13:32;;;;;;;17.15;11.80;;;4.20;99.90;;;;;;5038319;28;20037;-93
2023/12/06 01:15:58;;;;;;;18.05;11.70;;;4.20;99.90;;;;;;5037325;28;20025;-94
2023/12/06 01:18:23;;;;;;;14.85;11.43;;;4.10;99.90;;;;;;5036926;28;20033;-94
2023/12/06 01:20:49;;;;;;;19.17;13.10;;;4.20;99.90;;;;;;5037252;28;20096;-92
2023/12/06 01:23:16;;;;;;;17.90;12.30;;;4.10;99.90;;;;;;5036907;28;20033;-93
2023/12/06 01:25:41;;;;;;;16.83;11.70;;;4.20;99.90;;;;;;5032781;28;20025;-91
2023/12/06 01:28:07;;;;;;;17.75;12.15;;;4.20;99.90;;;;;;5036985;28;20044;-94
2023/12/06 01:30:33;;;;;;;15.73;11.27;;;4.20;99.90;;;;;;5049766;28;20024;-93
2023/12/06 01:33:15;;;;;;;19.17;11.95;;;4.20;99.90;;;;;;5059540;28;20061;-94
2023/12/06 01:35:40;;;;;;;19.15;12.40;;;4.20;99.90;;;;;;5054696;28;20492;-93
2023/12/06 01:38:22;;;;;;;18.33;11.75;;;4.20;99.90;;;;;;5031477;28;20033;-93
2023/12/06 01:40:49;;;;;;;17.33;12.70;;;4.30;99.90;;;;;;5016289;28;20509;-93
2023/12/06 01:43:17;;;;;;;18.02;12.32;;;4.30;99.90;;;;;;5041851;28;20009;-92
2023/12/06 01:45:53;;;;;;;14.43;11.02;;;4.30;99.90;;;;;;5043240;28;20085;-94
2023/12/06 01:48:24;;;;;;;18.85;11.45;;;4.30;99.90;;;;;;5036208;28;20041;-93
2023/12/06 01:51:04;;;;;;;14.75;11.60;;;4.30;99.90;;;;;;5020107;28;20030;-93
2023/12/06 01:53:32;;;;;;;9.73;8.02;;;4.30;99.90;;;;;;5016300;28;20030;-94
2023/12/06 01:56:08;;;;;;;16.05;11.80;;;4.30;99.90;;;;;;5037882;28;20052;-93
2023/12/06 01:58:38;;;;;;;14.52;11.18;;;4.30;99.90;;;;;;5034385;28;20060;-94
2023/12/06 02:01:08;;;;;;;16.92;11.60;;;4.40;99.90;;;;;;5034702;28;20037;-94
2023/12/06 02:03:42;;;;;;;15.55;11.43;;;4.30;99.90;;;;;;5035826;28;20036;-93
2023/12/06 02:06:15;;;;;;;19.20;11.50;;;4.40;99.90;;;;;;5035545;28;20021;-93
2023/12/06 02:09:01;;;;;;;17.73;11.93;;;4.40;99.90;;;;;;5035091;28;20484;-93
2023/12/06 02:11:27;;;;;;;17.15;12.07;;;4.40;99.90;;;;;;5034888;28;20025;-94
2023/12/06 02:14:04;;;;;;;15.93;12.07;;;4.40;99.90;;;;;;5019134;28;20030;-94
2023/12/06 02:16:44;;;;;;;20.20;12.13;;;4.90;99.90;;;;;;5016490;28;20034;-94
2023/12/06 02:19:16;;;;;;;15.23;11.55;;;4.40;99.90;;;;;;5024463;28;20021;-93
2023/12/06 02:21:42;;;;;;;16.67;11.77;;;4.50;99.90;;;;;;5032482;28;20041;-93
2023/12/06 02:24:09;;;;;;;19.73;11.35;;;4.50;99.90;;;;;;5035694;28;20029;-93
2023/12/06 02:26:35;;;;;;;16.98;12.32;;;4.50;99.90;;;;;;5040704;28;20022;-92
2023/12/06 02:29:25;;;;;;;20.65;12.20;;;4.50;99.90;;;;;;5051773;28;20032;-92
2023/12/06 02:31:51;;;;;;;22.20;12.88;;;4.50;99.90;;;;;;5030707;28;20041;-93
2023/12/06 02:34:22;;;;;;;25.75;12.98;;;4.40;99.90;;;;;;5035063;28;20025;-93
2023/12/06 02:37:00;;;;;;;20.75;13.60;;;4.40;99.90;;;;;;5035023;28;20025;-93
2023/12/06 02:39:35;;;;;;;18.55;12.95;;;4.50;99.90;;;;;;5016932;28;20029;-93
2023/12/06 02:42:12;;;;;;;19.95;12.13;;;4.50;99.90;;;;;;5032139;28;20029;-93
2023/12/06 02:44:37;;;;;;;19.02;14.35;;;4.50;99.90;;;;;;5043612;28;20044;-91
2023/12/06 02:47:05;;;;;;;22.90;12.68;;;4.50;99.90;;;;;;5037280;28;20052;-93
2023/12/06 02:49:38;;;;;;;25.73;13.57;;;4.40;99.90;;;;;;5034759;28;20052;-93
2023/12/06 02:52:06;;;;;;;19.58;13.75;;;4.40;99.90;;;;;;5033045;28;20065;-93
2023/12/06 02:54:33;;;;;;;20.02;12.85;;;4.40;99.90;;;;;;5015246;28;20052;-92
2023/12/06 02:56:59;;;;;;;23.25;15.38;;;4.40;99.90;;;;;;5023191;28;20022;-93
2023/12/06 02:59:28;;;;;;;20.67;13.70;;;4.40;99.90;;;;;;5035804;28;20033;-92
2023/12/06 03:01:56;;;;;;;18.23;14.37;;;4.40;99.90;;;;;;5026486;28;20084;-92
2023/12/06 03:04:33;;;;;;;23.42;15.40;;;4.40;99.90;;;;;;5015443;28;20470;-92
2023/12/06 03:06:58;;;;;;;24.10;15.43;;;4.40;99.90;;;;;;5014683;28;20081;-92
2023/12/06 03:09:26;;;;;;;27.35;15.85;;;4.50;99.90;;;;;;5017687;28;20069;-93
2023/12/06 03:11:53;;;;;;;25.95;17.45;;;4.50;99.90;;;;;;5034014;28;20025;-93
2023/12/06 03:14:22;;;;;;;25.27;15.65;;;4.40;99.90;;;;;;5016204;28;20030;-93
2023/12/06 03:16:49;;;;;;;25.40;15.68;;;4.40;99.90;;;;;;5023318;28;20025;-93
2023/12/06 03:19:16;;;;;;;25.10;15.70;;;4.40;99.90;;;;;;5041577;28;20025;-92
2023/12/06 03:21:41;;;;;;;21.15;14.80;;;4.40;99.90;;;;;;5052157;28;20028;-93
2023/12/06 03:24:10;;;;;;;23.10;15.55;;;4.50;99.90;;;;;;5057682;28;20014;-92
2023/12/06 03:26:51;;;;;;;23.92;15.82;;;4.50;99.90;;;;;;5037993;28;20029;-93
2023/12/06 03:29:17;;;;;;;21.35;14.85;;;4.50;99.90;;;;;;5034459;28;20037;-93
2023/12/06 03:31:43;;;;;;;23.70;15.85;;;4.50;99.90;;;;;;5032968;28;20044;-92
2023/12/06 03:34:09;;;;;;;25.45;15.55;;;5.20;99.90;;;;;;5034740;28;20072;-93
2023/12/06 03:36:42;;;;;;;24.60;15.35;;;4.50;99.90;;;;;;5034239;28;20065;-93
2023/12/06 03:39:08;;;;;;;22.77;14.68;;;4.50;99.90;;;;;;5031404;28;20024;-95
2023/12/06 03:41:40;;;;;;;23.75;15.85;;;4.50;99.90;;;;;;5024094;28;20112;-93
2023/12/06 03:44:06;;;;;;;21.60;15.65;;;5.00;99.90;;;;;;5020655;28;20030;-93
2023/12/06 03:46:35;;;;;;;26.80;15.73;;;4.50;99.90;;;;;;5035907;28;20025;-93
2023/12/06 03:49:02;;;;;;;25.15;15.60;;;4.50;99.90;;;;;;5039226;28;20037;-93
2023/12/06 03:51:29;;;;;;;22.80;16.80;;;5.00;99.90;;;;;;5012983;28;20079;-90
2023/12/06 03:53:56;;;;;;;26.65;16.80;;;4.60;99.90;;;;;;5025849;28;20033;-90
2023/12/06 03:56:22;;;;;;;23.13;15.68;;;4.60;99.90;;;;;;5037008;28;20025;-92
2023/12/06 03:58:59;;;;;;;23.20;15.18;;;4.60;99.90;;;;;;5020409;28;20022;-93
2023/12/06 04:01:31;;;;;;;26.73;15.50;;;4.60;99.90;;;;;;5025479;28;20473;-94
2023/12/06 04:03:57;;;;;;;22.92;15.45;;;4.60;99.90;;;;;;5037072;28;20033;-93
2023/12/06 04:06:23;;;;;;;22.73;14.98;;;4.60;99.90;;;;;;5019735;28;20404;-93
2023/12/06 04:08:50;;;;;;;22.17;14.98;;;4.60;99.90;;;;;;5038823;28;20045;-93
2023/12/06 04:11:16;;;;;;;25.15;14.82;;;4.70;99.90;;;;;;5033478;28;20030;-93
2023/12/06 04:13:48;;;;;;;23.00;15.15;;;4.60;99.90;;;;;;5021640;28;20485;-94
2023/12/06 04:16:15;;;;;;;20.17;14.18;;;4.60;99.90;;;;;;5049794;28;20040;-93
2023/12/06 04:18:41;;;;;;;22.10;15.43;;;4.60;99.90;;;;;;5055323;28;20033;-92
2023/12/06 04:21:13;;;;;;;21.90;15.15;;;4.60;99.90;;;;;;5051495;28;20014;-92
2023/12/06 04:23:39;;;;;;;20.05;13.45;;;4.70;99.90;;;;;;5041780;28;20025;-93
2023/12/06 04:26:07;;;;;;;19.00;14.38;;;4.70;99.90;;;;;;5037474;28;20038;-93
2023/12/06 04:28:51;;;;;;;18.50;13.35;;;4.70;99.90;;;;;;5037332;28;20055;-94
2023/12/06 04:31:23;;;;;;;20.13;12.73;;;4.70;99.90;;;;;;5020441;28;20049;-93
2023/12/06 04:33:50;;;;;;;23.90;15.48;;;4.70;99.90;;;;;;5017673;28;20370;-94
2023/12/06 04:36:16;;;;;;;18.17;13.50;;;4.70;99.90;;;;;;5021688;28;20069;-92
2023/12/06 04:38:42;;;;;;;21.27;12.93;;;4.70;99.90;;;;;;5037687;28;20032;-93
2023/12/06 04:41:08;;;;;;;17.85;13.05;;;4.70;99.90;;;;;;5037501;28;20030;-94
2023/12/06 04:43:45;;;;;;;19.15;13.88;;;4.70;99.90;;;;;;5037798;28;20026;-93
2023/12/06 04:46:13;;;;;;;17.55;12.70;;;4.70;99.90;;;;;;5017496;28;20048;-92
2023/12/06 04:48:38;;;;;;;20.08;13.50;;;4.80;99.90;;;;;;5039934;28;20029;-92
2023/12/06 04:51:04;;;;;;;22.42;14.50;;;4.80;99.90;;;;;;5056590;28;20017;-93
2023/12/06 04:53:30;;;;;;;18.15;13.40;;;4.80;99.90;;;;;;5030266;28;20547;-93
2023/12/06 04:56:03;;;;;;;16.70;13.23;;;4.80;99.90;;;;;;5021617;28;20026;-93
2023/12/06 04:58:29;;;;;;;18.17;13.63;;;4.80;99.90;;;;;;5059392;28;20055;-93
2023/12/06 05:00:57;;;;;;;18.48;13.40;;;4.80;99.90;;;;;;5041132;28;20018;-93
2023/12/06 05:03:25;;;;;;;22.75;13.45;;;4.80;99.90;;;;;;5031386;28;20029;-93
2023/12/06 05:05:56;;;;;;;17.40;11.98;;;4.80;99.90;;;;;;5052985;28;20028;-93
2023/12/06 05:08:24;;;;;;;16.65;12.73;;;4.80;99.90;;;;;;5041494;28;20033;-93
2023/12/06 05:10:50;;;;;;;20.25;12.68;;;4.80;99.90;;;;;;5059044;28;20033;-94
2023/12/06 05:14:04;;;;;;;18.25;13.02;;;4.80;99.90;;;;;;5053189;28;20095;-92
2023/12/06 05:16:31;;;;;;;16.27;11.98;;;4.80;99.90;;;;;;5036687;28;20025;-92
2023/12/06 05:18:59;;;;;;;21.27;13.23;;;4.80;99.90;;;;;;5036770;28;20041;-92
2023/12/06 05:21:40;;;;;;;16.55;12.60;;;4.80;99.90;;;;;;5036477;28;20469;-91
2023/12/06 05:24:06;;;;;;;;;;;4.80;99.90;;;;;;5036751;28;20029;-92
2023/12/06 05:26:50;;;;;;;17.58;11.93;;;4.80;99.90;;;;;;5033704;28;20353;-93
2023/12/06 05:29:22;;;;;;;20.17;12.95;;;4.70;99.90;;;;;;5036198;28;20040;-91
2023/12/06 05:31:48;;;;;;;20.40;12.27;;;4.80;99.90;;;;;;5034323;28;20017;-92
2023/12/06 05:34:27;;;;;;;17.58;11.88;;;4.70;99.90;;;;;;5044587;28;20041;-92
2023/12/06 05:36:53;;;;;;;16.70;12.90;;;4.70;99.90;;;;;;5018968;28;20357;-92
2023/12/06 05:39:19;;;;;;;19.27;12.40;;;4.70;99.90;;;;;;5018755;28;20052;-91
2023/12/06 05:41:45;;;;;;;16.92;11.10;;;4.70;99.90;;;;;;5035053;28;20030;-91
2023/12/06 05:44:10;;;;;;;19.00;11.50;;;4.80;99.90;;;;;;5036095;28;20025;-92
2023/12/06 05:46:48;;;;;;;17.30;11.40;;;4.70;99.90;;;;;;5035460;28;20053;-91
2023/12/06 05:49:17;;;;;;;15.60;11.75;;;4.70;99.90;;;;;;5035970;28;20040;-92
2023/12/06 05:51:42;;;;;;;18.40;11.63;;;4.70;99.90;;;;;;5033340;28;20112;-91
2023/12/06 05:54:08;;;;;;;18.77;11.35;;;4.70;99.90;;;;;;5035293;28;20075;-92
2023/12/06 05:56:42;;;;;;;20.88;12.57;;;4.70;99.90;;;;;;5039704;28;20048;-92
2023/12/06 05:59:08;;;;;;;16.92;12.27;;;5.30;99.90;;;;;;5040942;28;20025;-91
2023/12/06 06:01:42;;;;;;;19.23;12.80;;;4.80;99.90;;;;;;5032990;28;20466;-91
2023/12/06 06:04:23;;;;;;;19.55;12.98;;;4.80;99.90;;;;;;5042088;28;20045;-92
2023/12/06 06:06:55;;;;;;;21.95;12.80;;;5.80;99.90;;;;;;5034105;28;20033;-92
2023/12/06 06:09:27;;;;;;;19.90;12.63;;;5.70;99.90;;;;;;5031844;28;20096;-92
2023/12/06 06:11:54;;;;;;;24.35;13.18;;;4.80;99.90;;;;;;5034949;28;20021;-92
2023/12/06 06:14:36;;;;;;;28.30;12.38;;;4.80;99.90;;;;;;5035680;28;20055;-92
2023/12/06 06:17:01;;;;;;;22.02;13.07;;;5.20;99.90;;;;;;5033423;28;20087;-92
2023/12/06 06:19:29;;;;;;;17.08;11.90;;;4.90;99.90;;;;;;5035212;28;20465;-92
2023/12/06 06:21:55;;;;;;;16.35;11.40;;;4.80;99.90;;;;;;5035168;28;20033;-92
2023/12/06 06:24:20;;;;;;;20.02;12.15;;;4.90;99.90;;;;;;5035339;28;20026;-91
2023/12/06 06:26:48;;;;;;;17.70;12.32;;;4.80;99.90;;;;;;5033487;28;20110;-93
2023/12/06 06:29:22;;;;;;;19.02;11.27;;;4.90;99.90;;;;;;5034878;28;20087;-93
2023/12/06 06:31:49;;;;;;;22.30;12.60;;;4.80;99.90;;;;;;5034867;28;20031;-92
2023/12/06 06:34:24;;;;;;;14.45;11.18;;;4.80;99.90;;;;;;4995425;28;20125;-92
2023/12/06 06:36:54;;;;;;;16.60;12.38;;;4.70;99.90;;;;;;4995828;28;20019;-93
2023/12/06 06:39:20;;;;;;;19.87;12.60;;;4.80;99.90;;;;;;4995660;28;20030;-92
2023/12/06 06:41:47;;;;;;;17.50;11.65;;;4.70;99.90;;;;;;4995904;28;20276;-93
2023/12/06 06:44:12;;;;;;;19.15;11.15;;;4.70;99.90;;;;;;4995270;28;20033;-92
2023/12/06 06:46:51;;;;;;;19.30;11.18;;;4.70;99.90;;;;;;4995614;28;20026;-92
2023/12/06 06:49:19;;;;;;;19.15;10.80;;;4.70;99.90;;;;;;4998674;28;20026;-92
2023/12/06 06:51:46;;;;;;;20.48;10.05;;;4.60;99.90;;;;;;5003485;28;20035;-92
2023/12/06 06:54:18;;;;;;;13.10;9.57;;;4.70;99.90;;;;;;4995239;28;20030;-93
2023/12/06 06:56:43;;;;;;;17.23;10.05;;;4.70;99.90;;;;;;5011801;28;20029;-93
2023/12/06 06:59:13;;;;;;;14.82;9.30;;;4.70;99.90;;;;;;4987050;28;20030;-92
2023/12/06 07:01:40;;;;;;;14.40;9.60;;;4.70;99.90;;;;;;4994239;28;20490;-93
2023/12/06 07:04:06;;;;;;;15.48;9.10;;;4.70;99.90;;;;;;4995711;28;20026;-92
2023/12/06 07:06:36;;;;;;;16.65;9.02;;;4.70;99.90;;;;;;4995156;28;20052;-93
2023/12/06 07:09:09;;;;;;;26.23;9.45;;;4.70;99.90;;;;;;4983612;28;20039;-92
2023/12/06 07:11:35;;;;;;;19.30;9.30;;;4.60;99.90;;;;;;4978426;28;20026;-92
2023/12/06 07:14:18;;;;;;;12.80;9.27;;;4.60;99.90;;;;;;4996341;28;20045;-92
2023/12/06 07:16:56;;;;;;;16.45;8.95;;;4.60;99.90;;;;;;4994850;28;20092;-92
2023/12/06 07:19:25;;;;;;;15.63;9.85;;;4.50;99.90;;;;;;4977205;28;20414;-93
2023/12/06 07:21:52;;;;;;;18.73;9.63;;;4.50;99.90;;;;;;4984562;28;20045;-88
2023/12/06 07:24:20;;;;;;;15.10;8.85;;;4.40;99.90;;;;;;4994407;28;20030;-92
2023/12/06 07:26:46;;;;;;;16.35;8.35;;;4.40;99.90;;;;;;4994128;28;20529;-92
2023/12/06 07:29:12;;;;;;;15.75;8.50;;;4.40;99.90;;;;;;4994912;28;20038;-92
2023/12/06 07:31:39;;;;;;;12.40;7.55;;;4.40;99.90;;;;;;4995197;28;20374;-92
2023/12/06 07:34:06;;;;;;;15.95;8.10;;;4.40;99.90;;;;;;5049228;28;20096;-92
2023/12/06 07:36:33;;;;;;;12.57;7.55;;;4.40;99.90;;;;;;5048274;28;20085;-92
2023/12/06 07:39:14;;;;;;;10.52;7.80;;;4.40;99.90;;;;;;5034245;28;20026;-91
2023/12/06 07:41:40;;;;;;;;;;;4.40;99.90;;;;;;5035168;28;20033;-92
2023/12/06 07:44:32;;;;;;;11.57;7.55;;;4.90;99.90;;;;;;5026423;28;19906;-94
2023/12/06 07:46:58;;;;;;;9.60;7.57;;;4.50;99.90;;;;;;5015108;28;20030;-92
2023/12/06 07:49:23;;;;;;;19.73;9.57;;;4.50;99.90;;;;;;5023119;28;20034;-92
2023/12/06 07:52:09;;;;;;;20.38;8.52;;;4.40;99.90;;;;;;5052792;28;20025;-92
2023/12/06 07:54:41;;;;;;;15.63;8.00;;;4.50;99.90;;;;;;5041818;28;20030;-92
2023/12/06 07:57:08;;;;;;;17.50;8.40;;;4.50;99.90;;;;;;5025442;28;20056;-91
2023/12/06 07:59:43;;;;;;;16.77;7.57;;;4.50;99.90;;;;;;5024347;28;20030;-92
2023/12/06 08:02:15;;;;;;;21.95;9.38;;;5.00;99.90;;;;;;5023488;28;20473;-91
2023/12/06 08:04:48;;;;;;;13.90;8.10;;;4.50;99.90;;;;;;5032353;28;20030;-92
2023/12/06 08:07:16;;;;;;;13.95;7.97;;;4.50;99.90;;;;;;5028738;28;20017;-92
2023/12/06 08:09:45;;;;;;;12.73;6.35;;;4.50;99.90;;;;;;5022739;28;20556;-91
2023/12/06 08:12:11;;;;;;;12.45;7.32;;;4.40;99.90;;;;;;5022695;28;20029;-92
2023/12/06 08:14:43;;;;;;;10.75;7.40;;;4.40;99.90;;;;;;5021002;28;20043;-91
2023/12/06 08:17:10;;;;;;;9.77;7.25;;;4.40;99.90;;;;;;5027321;28;20038;-92
2023/12/06 08:19:55;;;;;;;10.40;6.97;;;4.30;99.90;;;;;;5055746;28;20029;-92
2023/12/06 08:22:21;;;;;;;17.67;7.20;;;4.30;99.90;;;;;;5021803;28;20045;-94
2023/12/06 08:24:57;;;;;;;12.00;7.32;;;4.30;99.90;;;;;;5021693;28;20386;-93
2023/12/06 08:27:34;;;;;;;13.90;7.32;;;4.30;99.90;;;;;;5019601;28;20766;-94
2023/12/06 08:30:01;;;;;;;10.73;6.50;;;4.30;99.90;;;;;;5036306;28;20033;-91
2023/12/06 08:32:27;;;;;;;14.45;8.15;;;4.30;99.90;;;;;;5036645;28;20080;-89
2023/12/06 08:34:53;;;;;;;15.02;7.55;;;4.30;99.90;;;;;;5036363;28;20084;-93
2023/12/06 08:37:20;;;;;;;12.25;6.95;;;4.30;99.90;;;;;;5036912;28;20056;-89
2023/12/06 08:39:55;;;;;;;13.25;7.60;;;4.30;99.90;;;;;;5039609;28;20055;-93
2023/12/06 08:42:20;;;;;;;16.77;7.05;;;4.30;99.90;;;;;;5032403;28;20378;-91
2023/12/06 08:45:20;;;;;;;13.13;7.97;;;4.30;99.90;;;;;;5057771;28;20041;-91
2023/12/06 08:47:53;;;;;;;11.10;6.60;;;4.30;99.90;;;;;;5034174;28;20048;-85
2023/12/06 08:50:19;;;;;;;14.00;6.70;;;4.30;99.90;;;;;;5024242;28;20094;-91
2023/12/06 08:52:48;;;;;;;13.13;7.25;;;4.30;99.90;;;;;;5040153;28;20079;-86
2023/12/06 08:55:16;;;;;;;11.70;6.28;;;4.30;99.90;;;;;;5035576;28;20033;-86
2023/12/06 08:57:43;;;;;;;10.57;6.75;;;4.40;99.90;;;;;;5019195;28;20025;-90
2023/12/06 09:00:11;;;;;;;17.92;7.55;;;4.40;99.90;;;;;;5040138;28;20038;-88
2023/12/06 09:02:40;;;;;;;9.95;6.90;;;4.40;99.90;;;;;;5042993;28;20010;-91
2023/12/06 09:05:06;;;;;;;14.38;9.35;;;4.40;99.90;;;;;;5040957;28;20079;-91
2023/12/06 09:07:35;;;;;;;13.20;7.43;;;4.40;99.90;;;;;;5036619;28;20096;-91
2023/12/06 09:10:01;;;;;;;12.18;6.57;;;4.40;99.90;;;;;;5046548;28;20489;-92
2023/12/06 09:12:26;;;;;;;11.32;5.78;;;4.40;99.90;;;;;;5038627;28;20026;-89
2023/12/06 09:14:56;;;;;;;9.02;6.65;;;4.50;99.90;;;;;;5034363;28;20111;-91
2023/12/06 09:17:22;;;;;;;14.93;6.90;;;4.50;99.90;;;;;;5033960;28;20085;-88
2023/12/06 09:19:48;;;;;;;16.33;8.15;;;4.50;99.90;;;;;;5031494;28;20089;-91
2023/12/06 09:22:16;;;;;;;14.02;7.05;;;4.50;99.90;;;;;;5032264;28;20079;-87
2023/12/06 09:24:44;;;;;;;13.77;7.50;;;4.50;99.90;;;;;;5040151;28;20037;-92
2023/12/06 09:27:19;;;;;;;11.80;7.80;;;4.60;99.90;;;;;;5035290;28;20368;-89
2023/12/06 09:30:04;;;;;;;15.80;7.70;;;4.60;99.90;;;;;;5036899;28;20049;-92
2023/12/06 09:32:30;;;;;;;13.40;7.50;;;4.70;99.90;;;;;;5030574;28;20038;-93
2023/12/06 09:35:29;;;;;;;12.57;7.60;;;4.70;99.90;;;;;;5036546;28;20052;-91
2023/12/06 09:37:57;;;;;;;10.68;7.80;;;4.70;99.90;;;;;;5048720;28;20033;-91
2023/12/06 09:40:28;;;;;;;16.02;8.60;;;5.00;99.90;;;;;;5036263;28;20038;-93
2023/12/06 09:43:04;;;;;;;14.93;8.48;;;4.80;99.90;;;;;;5027379;28;20033;-93
2023/12/06 09:45:37;;;;;;;18.00;9.20;;;4.80;99.90;;;;;;5037011;28;20352;-93
2023/12/06 09:48:10;;;;;;;11.93;7.70;;;4.80;99.90;;;;;;5035492;28;20037;-92
2023/12/06 09:50:59;;;;;;;16.45;7.85;;;4.80;99.90;;;;;;5034965;28;20064;-92
2023/12/06 09:53:38;;;;;;;13.85;6.78;;;4.80;99.90;;;;;;5038450;28;20033;-96
2023/12/06 09:56:08;;;;;;;11.30;7.07;;;4.80;99.90;;;;;;5037868;28;20055;-91
2023/12/06 09:58:39;;;;;;;16.02;7.18;;;4.80;99.90;;;;;;5037573;28;20052;-93
2023/12/06 10:01:09;;;;;;;13.38;6.43;;;4.90;99.90;;;;;;5041329;28;20040;-93
2023/12/06 10:03:36;;;;;;;;;;;4.90;99.90;;;;;;5052185;28;20034;-95
2023/12/06 10:06:05;;;;;;;10.63;6.07;;;5.00;99.90;;;;;;5049127;28;19936;-94
2023/12/06 10:08:35;;;;;;;13.20;7.27;;;5.00;99.90;;;;;;5037660;28;20041;-95
2023/12/06 10:11:06;;;;;;;12.45;6.72;;;5.00;99.90;;;;;;5036600;28;20025;-94
2023/12/06 10:13:37;;;;;;;11.02;6.80;;;5.00;99.90;;;;;;5035827;28;20400;-93
2023/12/06 10:16:24;;;;;;;10.20;6.25;;;5.00;99.90;;;;;;5037192;28;20037;-96
2023/12/06 10:18:56;;;;;;;14.23;7.45;;;5.70;99.90;;;;;;5039426;28;20033;-94
2023/12/06 10:21:22;;;;;;;22.90;7.65;;;5.10;99.90;;;;;;5040211;28;20033;-94
2023/12/06 10:23:57;;;;;;;19.60;7.40;;;5.20;99.90;;;;;;5047791;28;20021;-94
2023/12/06 10:26:28;;;;;;;13.85;7.78;;;5.20;99.90;;;;;;5029528;28;20057;-92
2023/12/06 10:28:55;;;;;;;12.27;7.47;;;5.20;99.90;;;;;;5056569;28;20073;-93
2023/12/06 10:31:20;;;;;;;13.27;7.55;;;5.30;99.90;;;;;;5039303;28;20025;-94
2023/12/06 10:33:55;;;;;;;14.35;7.75;;;5.40;99.90;;;;;;5028807;28;20054;-94
2023/12/06 10:36:22;;;;;;;11.75;7.60;;;6.50;99.90;;;;;;5039029;28;20512;-95
2023/12/06 10:38:51;;;;;;;10.70;7.07;;;5.40;99.90;;;;;;5036177;28;20033;-90
2023/12/06 10:41:17;;;;;;;10.68;7.45;;;5.40;99.90;;;;;;5036176;28;20029;-89
2023/12/06 10:43:44;;;;;;;13.40;7.35;;;5.50;99.90;;;;;;5029967;28;20029;-90
2023/12/06 10:46:11;;;;;;;17.85;8.35;;;5.50;99.90;;;;;;5027292;28;20057;-92
2023/12/06 10:48:56;;;;;;;11.63;7.53;;;6.30;99.90;;;;;;5015205;28;20030;-93
2023/12/06 10:51:24;;;;;;;15.52;7.82;;;5.50;99.90;;;;;;5021430;28;20034;-92
2023/12/06 10:53:53;;;;;;;13.20;7.25;;;6.00;99.90;;;;;;5046074;28;20064;-92
2023/12/06 11:07:17;;;;;;;12.63;6.90;;;5.80;99.90;;;;;;5645587;22;20046;-93
2023/12/06 11:10:20;;;;;;;11.32;6.50;;;5.80;99.90;;;;;;4991242;28;20134;-93
2023/12/06 11:13:09;;;;;;;14.80;7.55;;;5.90;99.90;;;;;;5008341;28;20201;-94
2023/12/06 11:15:41;;;;;;;15.07;6.43;;;6.00;99.90;;;;;;5134337;23;22113;-94
2023/12/06 11:20:54;;;;;;;12.32;6.32;;;6.20;99.90;;;;;;5019278;28;20046;-91
2023/12/06 11:23:21;;;;;;;22.75;6.57;;;6.20;99.90;;;;;;5026435;28;20033;-91
2023/12/06 11:25:54;;;;;;;7.97;6.07;;;6.30;99.90;;;;;;5023315;28;20501;-93
2023/12/06 11:28:23;;;;;;;7.93;5.13;;;6.40;99.90;;;;;;5024456;28;20443;-94
2023/12/06 11:30:50;;;;;;;13.52;6.35;;;6.40;99.90;;;;;;5017104;28;20029;-91
2023/12/06 11:33:16;;;;;;;20.55;5.80;;;6.40;99.90;;;;;;5017401;28;20036;-92
2023/12/06 11:35:43;;;;;;;11.40;5.55;;;6.40;99.90;;;;;;5028372;28;20026;-94
2023/12/06 11:38:08;;;;;;;10.15;5.15;;;6.40;99.90;;;;;;5028583;28;20041;-95
2023/12/06 11:40:34;;;;;;;11.23;5.32;;;6.40;99.90;;;;;;5031774;28;20026;-95
2023/12/06 11:43:32;;;;;;;9.65;5.18;;;6.50;99.90;;;;;;5228589;22;20061;-95
2023/12/06 11:46:10;;;;;;;10.75;4.68;;;5.80;99.90;;;;;;5020138;28;20085;-94
2023/12/06 11:51:28;;;;;;;7.57;4.43;;;6.70;99.90;;;;;;5182145;23;20056;-93
2023/12/06 11:54:05;;;;;;;7.20;3.53;;;7.60;99.90;;;;;;5017597;28;20046;-91
2023/12/06 11:56:31;;;;;;;6.80;2.72;;;6.60;99.90;;;;;;5029417;28;20053;-94
2023/12/06 11:58:58;;;;;;;8.82;4.22;;;6.30;99.90;;;;;;5055908;23;20050;-94
2023/12/06 12:01:25;;;;;;;6.88;5.13;;;6.30;99.90;;;;;;5210473;23;20089;-94
2023/12/06 12:03:53;;;;;;;8.10;5.18;;;6.00;99.90;;;;;;5033489;28;20049;-94
2023/12/06 12:09:02;;;;;;;6.57;5.00;;;5.90;99.90;;;;;;5042047;23;20026;-94
2023/12/06 12:11:32;;;;;;;5.82;4.47;;;5.90;99.90;;;;;;5015778;28;20034;-94
2023/12/06 12:13:59;;;;;;;4.10;3.70;;;6.40;99.90;;;;;;5025785;28;20030;-93
2023/12/06 12:16:26;;;;;;;5.15;3.58;;;5.80;99.90;;;;;;5032564;28;20018;-92
2023/12/06 12:18:53;;;;;;;7.15;3.30;;;5.70;99.90;;;;;;5008019;28;20093;-92
2023/12/06 12:21:20;;;;;;;4.68;3.03;;;5.70;99.90;;;;;;5008746;28;20458;-91
2023/12/06 12:23:47;;;;;;;4.00;3.00;;;5.80;99.90;;;;;;5008999;28;20034;-91
2023/12/06 12:26:14;;;;;;;5.38;2.90;;;5.80;99.90;;;;;;5019761;28;20030;-92
2023/12/06 12:28:40;;;;;;;5.50;2.75;;;5.80;99.90;;;;;;5021903;28;20121;-91
2023/12/06 12:31:10;;;;;;;3.10;2.30;;;5.90;99.90;;;;;;5008639;28;20101;-92
2023/12/06 12:33:42;;;;;;;2.88;2.38;;;5.90;99.90;;;;;;5015493;28;20026;-92
2023/12/06 12:36:08;;;;;;;4.88;2.90;;;5.80;99.90;;;;;;5008345;28;20080;-93
2023/12/06 12:38:35;;;;;;;2.58;2.13;;;6.00;99.90;;;;;;5012654;28;20041;-93
2023/12/06 12:41:01;;;;;;;2.17;1.90;;;6.60;99.90;;;;;;5005775;28;20105;-88
2023/12/06 12:43:27;;;;;;;2.60;2.35;;;6.00;99.90;;;;;;5019943;28;20486;-92
2023/12/06 12:45:52;;;;;;;4.05;2.40;;;6.00;99.90;;;;;;5021447;28;20057;-92
2023/12/06 12:48:18;;;;;;;2.47;1.90;;;6.10;99.90;;;;;;5017881;28;20078;-90
2023/12/06 12:51:03;;;;;;;3.80;2.15;;;6.10;99.90;;;;;;5018470;28;20014;-91
2023/12/06 12:53:35;;;;;;;2.88;1.98;;;6.20;99.90;;;;;;5012444;28;20057;-92
2023/12/06 12:56:02;;;;;;;2.50;2.05;;;6.90;99.90;;;;;;5025504;28;20034;-92
2023/12/06 12:58:32;;;;;;;5.78;2.30;;;6.20;99.90;;;;;;5029743;28;20124;-94
2023/12/06 13:01:00;;;;;;;5.68;3.15;;;7.20;99.90;;;;;;5032056;28;20041;-91
2023/12/06 13:03:28;;;;;;;6.70;3.67;;;7.30;99.90;;;;;;5013967;28;20040;-91
2023/12/06 13:05:53;;;;;;;5.15;3.42;;;6.40;99.90;;;;;;4997423;28;20027;-91
2023/12/06 13:08:19;;;;;;;5.57;3.47;;;6.30;99.90;;;;;;5007206;28;20046;-90
2023/12/06 13:10:48;;;;;;;5.32;3.78;;;6.50;99.90;;;;;;5030614;28;20114;-91
2023/12/06 13:13:15;;;;;;;7.40;3.47;;;6.50;99.90;;;;;;5001097;28;20501;-94
2023/12/06 13:15:41;;;;;;;8.77;4.45;;;6.60;99.90;;;;;;4995685;28;20041;-92
2023/12/06 13:18:09;;;;;;;5.45;4.20;;;6.60;99.90;;;;;;5000488;28;20038;-91